sensor_id;sensor_type;location;lat;lon;timestamp;temperature;humidity
10660;DHT22;5378;53.206;13.316;2023-11-19T00:02:29;5.10;99.90
10660;DHT22;5378;53.206;13.316;2023-11-19T00:05:16;5.10;99.90
10660;DHT22;5378;53.206;13.316;2023-11-19T00:08:05;5.10;99.90
10660;DHT22;5378;53.206;13.316;2023-11-19T00:10:52;5.10;99.90
10660;DHT22;5378;53.206;13.316;2023-11-19T00:13:40;4.90;99.90
10660;DHT22;5378;53.206;13.316;2023-11-19T00:16:27;5.00;99.90
10660;DHT22;5378;53.206;13.316;2023-11-19T00:19:15;4.90;99.90
10660;DHT22;5378;53.206;13.316;2023-11-19T00:22:03;4.90;99.90
10660;DHT22;5378;53.206;13.316;2023-11-19T00:24:50;4.90;99.90
10660;DHT22;5378;53.206;13.316;2023-11-19T00:27:37;4.90;99.90
10660;DHT22;5378;53.206;13.316;2023-11-19T00:30:24;5.10;99.90
10660;DHT22;5378;53.206;13.316;2023-11-19T00:33:12;5.10;99.90
10660;DHT22;5378;53.206;13.316;2023-11-19T00:36:00;5.10;99.90
10660;DHT22;5378;53.206;13.316;2023-11-19T00:38:48;4.90;99.90
10660;DHT22;5378;53.206;13.316;2023-11-19T00:41:35;5.00;99.90
10660;DHT22;5378;53.206;13.316;2023-11-19T00:44:22;5.00;99.90
10660;DHT22;5378;53.206;13.316;2023-11-19T00:47:10;5.10;99.90
10660;DHT22;5378;53.206;13.316;2023-11-19T00:49:57;5.10;99.90
10660;DHT22;5378;53.206;13.316;2023-11-19T00:52:45;5.30;99.90
10660;DHT22;5378;53.206;13.316;2023-11-19T00:55:33;5.30;99.90
10660;DHT22;5378;53.206;13.316;2023-11-19T00:58:31;5.40;99.90
10660;DHT22;5378;53.206;13.316;2023-11-19T01:01:18;5.40;99.90
10660;DHT22;5378;53.206;13.316;2023-11-19T01:04:05;5.40;99.90
10660;DHT22;5378;53.206;13.316;2023-11-19T01:06:52;5.40;99.90
10660;DHT22;5378;53.206;13.316;2023-11-19T01:09:42;5.40;99.90
10660;DHT22;5378;53.206;13.316;2023-11-19T01:12:30;5.40;99.90
10660;DHT22;5378;53.206;13.316;2023-11-19T01:15:19;5.20;99.90
10660;DHT22;5378;53.206;13.316;2023-11-19T01:18:06;5.10;99.90
10660;DHT22;5378;53.206;13.316;2023-11-19T01:20:54;5.00;99.90
10660;DHT22;5378;53.206;13.316;2023-11-19T01:23:42;5.00;99.90
10660;DHT22;5378;53.206;13.316;2023-11-19T01:26:31;5.10;99.90
10660;DHT22;5378;53.206;13.316;2023-11-19T01:29:18;4.90;99.90
10660;DHT22;5378;53.206;13.316;2023-11-19T01:32:06;4.90;99.90
10660;DHT22;5378;53.206;13.316;2023-11-19T01:34:53;4.90;99.90
10660;DHT22;5378;53.206;13.316;2023-11-19T01:37:40;4.90;99.90
10660;DHT22;5378;53.206;13.316;2023-11-19T01:40:27;5.10;99.90
10660;DHT22;5378;53.206;13.316;2023-11-19T01:43:34;5.10;99.90
10660;DHT22;5378;53.206;13.316;2023-11-19T01:46:21;5.10;99.90
10660;DHT22;5378;53.206;13.316;2023-11-19T01:49:09;4.90;99.90
10660;DHT22;5378;53.206;13.316;2023-11-19T01:51:57;4.80;99.90
10660;DHT22;5378;53.206;13.316;2023-11-19T01:54:44;4.80;99.90
10660;DHT22;5378;53.206;13.316;2023-11-19T01:57:32;4.90;99.90
10660;DHT22;5378;53.206;13.316;2023-11-19T02:00:21;4.80;99.90
10660;DHT22;5378;53.206;13.316;2023-11-19T02:03:09;4.90;99.90
10660;DHT22;5378;53.206;13.316;2023-11-19T02:05:57;4.80;99.90
10660;DHT22;5378;53.206;13.316;2023-11-19T02:08:45;4.70;99.90
10660;DHT22;5378;53.206;13.316;2023-11-19T02:11:33;4.70;99.90
10660;DHT22;5378;53.206;13.316;2023-11-19T02:14:24;4.70;99.90
10660;DHT22;5378;53.206;13.316;2023-11-19T02:17:26;4.60;99.90
10660;DHT22;5378;53.206;13.316;2023-11-19T02:20:14;4.60;99.90
10660;DHT22;5378;53.206;13.316;2023-11-19T02:23:01;4.60;99.90
10660;DHT22;5378;53.206;13.316;2023-11-19T02:25:59;4.70;99.90
10660;DHT22;5378;53.206;13.316;2023-11-19T02:28:48;4.60;99.90
10660;DHT22;5378;53.206;13.316;2023-11-19T02:31:36;4.60;99.90
10660;DHT22;5378;53.206;13.316;2023-11-19T02:34:23;4.70;99.90
10660;DHT22;5378;53.206;13.316;2023-11-19T02:37:10;4.70;99.90
10660;DHT22;5378;53.206;13.316;2023-11-19T02:39:58;4.70;99.90
10660;DHT22;5378;53.206;13.316;2023-11-19T02:42:55;4.70;99.90
10660;DHT22;5378;53.206;13.316;2023-11-19T02:45:45;4.70;99.90
10660;DHT22;5378;53.206;13.316;2023-11-19T02:48:32;4.70;99.90
10660;DHT22;5378;53.206;13.316;2023-11-19T02:51:21;4.60;99.90
10660;DHT22;5378;53.206;13.316;2023-11-19T02:54:08;4.60;99.90
10660;DHT22;5378;53.206;13.316;2023-11-19T02:56:56;4.50;99.90
10660;DHT22;5378;53.206;13.316;2023-11-19T02:59:45;4.50;99.90
10660;DHT22;5378;53.206;13.316;2023-11-19T03:02:34;4.40;99.90
10660;DHT22;5378;53.206;13.316;2023-11-19T03:05:29;4.30;99.90
10660;DHT22;5378;53.206;13.316;2023-11-19T03:08:17;4.20;99.90
10660;DHT22;5378;53.206;13.316;2023-11-19T03:11:08;4.10;99.90
10660;DHT22;5378;53.206;13.316;2023-11-19T03:13:55;4.30;99.90
10660;DHT22;5378;53.206;13.316;2023-11-19T03:16:45;4.40;99.90
10660;DHT22;5378;53.206;13.316;2023-11-19T03:19:33;4.40;99.90
10660;DHT22;5378;53.206;13.316;2023-11-19T03:22:20;4.50;99.90
10660;DHT22;5378;53.206;13.316;2023-11-19T03:25:08;4.50;99.90
10660;DHT22;5378;53.206;13.316;2023-11-19T03:27:55;4.50;99.90
10660;DHT22;5378;53.206;13.316;2023-11-19T03:30:43;4.50;99.90
10660;DHT22;5378;53.206;13.316;2023-11-19T03:33:30;4.50;99.90
10660;DHT22;5378;53.206;13.316;2023-11-19T03:36:18;4.50;99.90
10660;DHT22;5378;53.206;13.316;2023-11-19T03:39:05;4.60;99.90
10660;DHT22;5378;53.206;13.316;2023-11-19T03:41:53;4.70;99.90
10660;DHT22;5378;53.206;13.316;2023-11-19T03:44:41;4.70;99.90
10660;DHT22;5378;53.206;13.316;2023-11-19T03:47:28;4.70;99.90
10660;DHT22;5378;53.206;13.316;2023-11-19T03:50:15;4.70;99.90
10660;DHT22;5378;53.206;13.316;2023-11-19T03:53:03;4.80;99.90
10660;DHT22;5378;53.206;13.316;2023-11-19T03:55:50;4.70;99.90
10660;DHT22;5378;53.206;13.316;2023-11-19T03:58:38;4.70;99.90
10660;DHT22;5378;53.206;13.316;2023-11-19T04:01:26;4.70;99.90
10660;DHT22;5378;53.206;13.316;2023-11-19T04:04:13;4.50;99.90
10660;DHT22;5378;53.206;13.316;2023-11-19T04:07:00;4.50;99.90
10660;DHT22;5378;53.206;13.316;2023-11-19T04:09:50;4.50;99.90
10660;DHT22;5378;53.206;13.316;2023-11-19T04:12:37;4.50;99.90
10660;DHT22;5378;53.206;13.316;2023-11-19T04:15:24;4.50;99.90
10660;DHT22;5378;53.206;13.316;2023-11-19T04:18:11;4.50;99.90
10660;DHT22;5378;53.206;13.316;2023-11-19T04:20:59;4.50;99.90
10660;DHT22;5378;53.206;13.316;2023-11-19T04:23:46;4.50;99.90
10660;DHT22;5378;53.206;13.316;2023-11-19T04:26:34;4.60;99.90
10660;DHT22;5378;53.206;13.316;2023-11-19T04:29:22;4.50;99.90
10660;DHT22;5378;53.206;13.316;2023-11-19T04:32:11;4.60;99.90
10660;DHT22;5378;53.206;13.316;2023-11-19T04:34:58;4.50;99.90
10660;DHT22;5378;53.206;13.316;2023-11-19T04:37:45;4.50;99.90
10660;DHT22;5378;53.206;13.316;2023-11-19T04:40:33;4.50;99.90
10660;DHT22;5378;53.206;13.316;2023-11-19T04:43:21;4.50;99.90
10660;DHT22;5378;53.206;13.316;2023-11-19T04:46:09;4.60;99.90
10660;DHT22;5378;53.206;13.316;2023-11-19T04:48:56;4.60;99.90
10660;DHT22;5378;53.206;13.316;2023-11-19T04:51:44;4.60;99.90
10660;DHT22;5378;53.206;13.316;2023-11-19T04:54:33;4.70;99.90
10660;DHT22;5378;53.206;13.316;2023-11-19T04:57:20;4.70;99.90
10660;DHT22;5378;53.206;13.316;2023-11-19T05:00:10;4.80;99.90
10660;DHT22;5378;53.206;13.316;2023-11-19T05:03:00;4.80;99.90
10660;DHT22;5378;53.206;13.316;2023-11-19T05:05:47;4.80;99.90
10660;DHT22;5378;53.206;13.316;2023-11-19T05:08:35;4.70;99.90
10660;DHT22;5378;53.206;13.316;2023-11-19T05:11:23;4.80;99.90
10660;DHT22;5378;53.206;13.316;2023-11-19T05:14:10;4.80;99.90
10660;DHT22;5378;53.206;13.316;2023-11-19T05:16:59;4.80;99.90
10660;DHT22;5378;53.206;13.316;2023-11-19T05:19:46;4.80;99.90
10660;DHT22;5378;53.206;13.316;2023-11-19T05:22:34;4.80;99.90
10660;DHT22;5378;53.206;13.316;2023-11-19T05:25:23;4.90;99.90
10660;DHT22;5378;53.206;13.316;2023-11-19T05:28:10;5.00;99.90
10660;DHT22;5378;53.206;13.316;2023-11-19T05:31:00;4.90;99.90
10660;DHT22;5378;53.206;13.316;2023-11-19T05:33:48;4.90;99.90
10660;DHT22;5378;53.206;13.316;2023-11-19T05:36:35;4.90;99.90
10660;DHT22;5378;53.206;13.316;2023-11-19T05:39:22;5.00;99.90
10660;DHT22;5378;53.206;13.316;2023-11-19T05:42:10;5.00;99.90
10660;DHT22;5378;53.206;13.316;2023-11-19T05:44:57;5.00;99.90
10660;DHT22;5378;53.206;13.316;2023-11-19T05:47:44;4.90;99.90
10660;DHT22;5378;53.206;13.316;2023-11-19T05:50:33;4.90;99.90
10660;DHT22;5378;53.206;13.316;2023-11-19T05:53:20;4.90;99.90
10660;DHT22;5378;53.206;13.316;2023-11-19T05:56:08;5.20;99.90
10660;DHT22;5378;53.206;13.316;2023-11-19T05:58:55;5.20;99.90
10660;DHT22;5378;53.206;13.316;2023-11-19T06:01:43;5.10;99.90
10660;DHT22;5378;53.206;13.316;2023-11-19T06:04:29;5.00;99.90
10660;DHT22;5378;53.206;13.316;2023-11-19T06:07:18;4.90;99.90
10660;DHT22;5378;53.206;13.316;2023-11-19T06:10:06;4.90;99.90
10660;DHT22;5378;53.206;13.316;2023-11-19T06:12:55;4.90;99.90
10660;DHT22;5378;53.206;13.316;2023-11-19T06:15:43;5.00;99.90
10660;DHT22;5378;53.206;13.316;2023-11-19T06:18:30;5.20;99.90
10660;DHT22;5378;53.206;13.316;2023-11-19T06:21:17;5.40;99.90
10660;DHT22;5378;53.206;13.316;2023-11-19T06:24:06;5.50;99.90
10660;DHT22;5378;53.206;13.316;2023-11-19T06:26:54;5.40;99.90
10660;DHT22;5378;53.206;13.316;2023-11-19T06:29:41;5.40;99.90
10660;DHT22;5378;53.206;13.316;2023-11-19T06:32:28;5.20;99.90
10660;DHT22;5378;53.206;13.316;2023-11-19T06:35:16;5.00;99.90
10660;DHT22;5378;53.206;13.316;2023-11-19T06:38:04;5.10;99.90
10660;DHT22;5378;53.206;13.316;2023-11-19T06:40:52;5.10;99.90
10660;DHT22;5378;53.206;13.316;2023-11-19T06:43:39;5.10;99.90
10660;DHT22;5378;53.206;13.316;2023-11-19T06:46:27;5.20;99.90
10660;DHT22;5378;53.206;13.316;2023-11-19T06:49:14;5.40;99.90
10660;DHT22;5378;53.206;13.316;2023-11-19T06:52:03;5.50;99.90
10660;DHT22;5378;53.206;13.316;2023-11-19T06:54:50;5.40;99.90
10660;DHT22;5378;53.206;13.316;2023-11-19T06:57:38;5.40;99.90
10660;DHT22;5378;53.206;13.316;2023-11-19T07:00:25;5.40;99.90
10660;DHT22;5378;53.206;13.316;2023-11-19T07:03:12;5.20;99.90
10660;DHT22;5378;53.206;13.316;2023-11-19T07:06:00;5.20;99.90
10660;DHT22;5378;53.206;13.316;2023-11-19T07:08:47;5.30;99.90
10660;DHT22;5378;53.206;13.316;2023-11-19T07:11:34;5.40;99.90
10660;DHT22;5378;53.206;13.316;2023-11-19T07:14:23;5.40;99.90
10660;DHT22;5378;53.206;13.316;2023-11-19T07:17:10;5.50;99.90
10660;DHT22;5378;53.206;13.316;2023-11-19T07:19:57;5.40;99.90
10660;DHT22;5378;53.206;13.316;2023-11-19T07:22:45;5.60;99.90
10660;DHT22;5378;53.206;13.316;2023-11-19T07:25:32;5.70;99.90
10660;DHT22;5378;53.206;13.316;2023-11-19T07:28:20;5.70;99.90
10660;DHT22;5378;53.206;13.316;2023-11-19T07:31:09;5.70;99.90
10660;DHT22;5378;53.206;13.316;2023-11-19T07:33:56;5.70;99.90
10660;DHT22;5378;53.206;13.316;2023-11-19T07:36:43;5.80;99.90
10660;DHT22;5378;53.206;13.316;2023-11-19T07:39:30;5.70;99.90
10660;DHT22;5378;53.206;13.316;2023-11-19T07:42:17;5.70;99.90
10660;DHT22;5378;53.206;13.316;2023-11-19T07:45:05;5.60;99.90
10660;DHT22;5378;53.206;13.316;2023-11-19T07:47:54;5.70;99.90
10660;DHT22;5378;53.206;13.316;2023-11-19T07:50:41;5.60;99.90
10660;DHT22;5378;53.206;13.316;2023-11-19T07:53:28;5.70;99.90
10660;DHT22;5378;53.206;13.316;2023-11-19T07:56:15;5.80;99.90
10660;DHT22;5378;53.206;13.316;2023-11-19T07:59:03;5.90;99.90
10660;DHT22;5378;53.206;13.316;2023-11-19T08:01:50;5.80;99.90
10660;DHT22;5378;53.206;13.316;2023-11-19T08:04:38;5.70;99.90
10660;DHT22;5378;53.206;13.316;2023-11-19T08:07:30;5.70;99.90
10660;DHT22;5378;53.206;13.316;2023-11-19T08:10:17;5.90;99.90
10660;DHT22;5378;53.206;13.316;2023-11-19T08:13:04;5.90;99.90
10660;DHT22;5378;53.206;13.316;2023-11-19T08:15:52;5.90;99.90
10660;DHT22;5378;53.206;13.316;2023-11-19T08:18:41;6.10;99.90
10660;DHT22;5378;53.206;13.316;2023-11-19T08:21:29;6.30;99.90
10660;DHT22;5378;53.206;13.316;2023-11-19T08:24:16;6.20;99.90
10660;DHT22;5378;53.206;13.316;2023-11-19T08:27:04;6.30;99.90
10660;DHT22;5378;53.206;13.316;2023-11-19T08:29:51;6.30;99.90
10660;DHT22;5378;53.206;13.316;2023-11-19T08:32:38;6.30;99.90
10660;DHT22;5378;53.206;13.316;2023-11-19T08:35:25;6.40;99.90
10660;DHT22;5378;53.206;13.316;2023-11-19T08:38:14;6.20;99.90
10660;DHT22;5378;53.206;13.316;2023-11-19T08:41:16;6.30;99.90
10660;DHT22;5378;53.206;13.316;2023-11-19T08:44:04;6.40;99.90
10660;DHT22;5378;53.206;13.316;2023-11-19T08:46:51;6.30;99.90
10660;DHT22;5378;53.206;13.316;2023-11-19T08:49:39;6.30;99.90
10660;DHT22;5378;53.206;13.316;2023-11-19T08:52:26;6.50;99.90
10660;DHT22;5378;53.206;13.316;2023-11-19T08:55:14;6.70;99.90
10660;DHT22;5378;53.206;13.316;2023-11-19T08:58:01;6.60;99.90
10660;DHT22;5378;53.206;13.316;2023-11-19T09:00:48;6.50;99.90
10660;DHT22;5378;53.206;13.316;2023-11-19T09:03:35;6.60;99.90
10660;DHT22;5378;53.206;13.316;2023-11-19T09:06:23;6.60;99.90
10660;DHT22;5378;53.206;13.316;2023-11-19T09:09:10;6.70;99.90
10660;DHT22;5378;53.206;13.316;2023-11-19T09:11:58;6.70;99.90
10660;DHT22;5378;53.206;13.316;2023-11-19T09:14:45;6.80;99.90
10660;DHT22;5378;53.206;13.316;2023-11-19T09:17:32;6.90;99.90
10660;DHT22;5378;53.206;13.316;2023-11-19T09:20:21;6.90;99.90
10660;DHT22;5378;53.206;13.316;2023-11-19T09:23:08;6.80;99.90
10660;DHT22;5378;53.206;13.316;2023-11-19T09:25:55;6.90;99.90
10660;DHT22;5378;53.206;13.316;2023-11-19T09:28:43;7.00;99.90
10660;DHT22;5378;53.206;13.316;2023-11-19T09:31:31;7.10;99.90
10660;DHT22;5378;53.206;13.316;2023-11-19T09:34:18;7.10;99.90
10660;DHT22;5378;53.206;13.316;2023-11-19T09:37:06;7.20;99.90
10660;DHT22;5378;53.206;13.316;2023-11-19T09:40:08;7.30;99.90
10660;DHT22;5378;53.206;13.316;2023-11-19T09:42:57;7.40;99.90
10660;DHT22;5378;53.206;13.316;2023-11-19T09:45:48;7.60;99.90
10660;DHT22;5378;53.206;13.316;2023-11-19T09:48:36;7.60;99.90
10660;DHT22;5378;53.206;13.316;2023-11-19T09:51:24;7.70;99.90
10660;DHT22;5378;53.206;13.316;2023-11-19T09:54:11;7.70;99.90
10660;DHT22;5378;53.206;13.316;2023-11-19T09:57:02;7.90;99.90
10660;DHT22;5378;53.206;13.316;2023-11-19T09:59:50;7.90;99.90
10660;DHT22;5378;53.206;13.316;2023-11-19T10:02:39;7.90;99.90
10660;DHT22;5378;53.206;13.316;2023-11-19T10:05:27;7.90;99.90
10660;DHT22;5378;53.206;13.316;2023-11-19T10:08:14;7.90;99.90
10660;DHT22;5378;53.206;13.316;2023-11-19T10:11:03;7.90;99.90
10660;DHT22;5378;53.206;13.316;2023-11-19T10:13:52;8.00;99.90
10660;DHT22;5378;53.206;13.316;2023-11-19T10:16:40;8.10;99.90
10660;DHT22;5378;53.206;13.316;2023-11-19T10:19:31;8.20;99.90
10660;DHT22;5378;53.206;13.316;2023-11-19T10:22:19;8.20;99.90
10660;DHT22;5378;53.206;13.316;2023-11-19T10:25:21;8.30;99.90
10660;DHT22;5378;53.206;13.316;2023-11-19T10:28:08;8.30;99.90
10660;DHT22;5378;53.206;13.316;2023-11-19T10:30:56;8.40;99.90
10660;DHT22;5378;53.206;13.316;2023-11-19T10:33:43;8.40;99.90
10660;DHT22;5378;53.206;13.316;2023-11-19T10:36:39;8.50;99.90
10660;DHT22;5378;53.206;13.316;2023-11-19T10:39:51;8.50;99.90
10660;DHT22;5378;53.206;13.316;2023-11-19T10:42:41;8.50;99.90
10660;DHT22;5378;53.206;13.316;2023-11-19T10:45:29;8.50;99.90
10660;DHT22;5378;53.206;13.316;2023-11-19T10:48:16;8.60;99.90
10660;DHT22;5378;53.206;13.316;2023-11-19T10:51:05;8.80;99.90
10660;DHT22;5378;53.206;13.316;2023-11-19T10:53:57;8.90;99.90
10660;DHT22;5378;53.206;13.316;2023-11-19T10:56:54;9.10;99.90
10660;DHT22;5378;53.206;13.316;2023-11-19T10:59:42;9.30;99.90
10660;DHT22;5378;53.206;13.316;2023-11-19T11:02:34;9.50;99.90
10660;DHT22;5378;53.206;13.316;2023-11-19T11:05:22;9.60;99.90
10660;DHT22;5378;53.206;13.316;2023-11-19T11:08:12;9.80;99.90
10660;DHT22;5378;53.206;13.316;2023-11-19T11:11:02;10.10;99.90
10660;DHT22;5378;53.206;13.316;2023-11-19T11:13:50;10.30;99.90
10660;DHT22;5378;53.206;13.316;2023-11-19T11:16:40;10.50;99.90
10660;DHT22;5378;53.206;13.316;2023-11-19T11:19:29;10.70;99.90
10660;DHT22;5378;53.206;13.316;2023-11-19T11:22:16;10.90;99.90
10660;DHT22;5378;53.206;13.316;2023-11-19T11:25:26;11.00;99.90
10660;DHT22;5378;53.206;13.316;2023-11-19T11:28:28;11.10;99.90
10660;DHT22;5378;53.206;13.316;2023-11-19T11:31:29;11.20;99.90
10660;DHT22;5378;53.206;13.316;2023-11-19T11:34:48;11.50;99.90
10660;DHT22;5378;53.206;13.316;2023-11-19T11:37:43;11.60;99.90
10660;DHT22;5378;53.206;13.316;2023-11-19T11:40:33;11.70;99.90
10660;DHT22;5378;53.206;13.316;2023-11-19T11:43:45;11.90;99.90
10660;DHT22;5378;53.206;13.316;2023-11-19T11:46:54;12.00;99.90
10660;DHT22;5378;53.206;13.316;2023-11-19T11:49:42;12.10;99.90
10660;DHT22;5378;53.206;13.316;2023-11-19T11:52:30;12.20;99.90
10660;DHT22;5378;53.206;13.316;2023-11-19T11:55:16;12.30;99.90
10660;DHT22;5378;53.206;13.316;2023-11-19T11:58:05;12.40;99.90
10660;DHT22;5378;53.206;13.316;2023-11-19T12:00:54;12.50;99.90
10660;DHT22;5378;53.206;13.316;2023-11-19T12:03:41;12.50;99.90
10660;DHT22;5378;53.206;13.316;2023-11-19T12:06:28;12.50;99.90
10660;DHT22;5378;53.206;13.316;2023-11-19T12:09:15;12.50;99.90
10660;DHT22;5378;53.206;13.316;2023-11-19T12:12:18;12.50;99.90
10660;DHT22;5378;53.206;13.316;2023-11-19T12:15:07;12.50;99.90
10660;DHT22;5378;53.206;13.316;2023-11-19T12:17:57;12.40;99.90
10660;DHT22;5378;53.206;13.316;2023-11-19T12:20:44;12.50;99.90
10660;DHT22;5378;53.206;13.316;2023-11-19T12:23:32;12.60;99.90
10660;DHT22;5378;53.206;13.316;2023-11-19T12:26:37;12.70;99.90
10660;DHT22;5378;53.206;13.316;2023-11-19T12:29:25;12.70;99.90
10660;DHT22;5378;53.206;13.316;2023-11-19T12:32:12;12.70;99.90
10660;DHT22;5378;53.206;13.316;2023-11-19T12:35:01;12.70;99.90
10660;DHT22;5378;53.206;13.316;2023-11-19T12:37:49;12.80;99.90
10660;DHT22;5378;53.206;13.316;2023-11-19T12:40:37;12.70;99.90
10660;DHT22;5378;53.206;13.316;2023-11-19T12:43:24;12.70;99.90
10660;DHT22;5378;53.206;13.316;2023-11-19T12:46:17;12.70;99.90
10660;DHT22;5378;53.206;13.316;2023-11-19T12:49:05;12.70;99.90
10660;DHT22;5378;53.206;13.316;2023-11-19T12:51:54;12.60;99.90
10660;DHT22;5378;53.206;13.316;2023-11-19T12:54:41;12.50;99.90
10660;DHT22;5378;53.206;13.316;2023-11-19T12:57:41;12.50;99.90
10660;DHT22;5378;53.206;13.316;2023-11-19T13:00:29;12.50;99.90
10660;DHT22;5378;53.206;13.316;2023-11-19T13:03:29;12.60;99.90
10660;DHT22;5378;53.206;13.316;2023-11-19T13:06:16;12.60;99.90
10660;DHT22;5378;53.206;13.316;2023-11-19T13:09:08;12.50;99.90
10660;DHT22;5378;53.206;13.316;2023-11-19T13:11:58;12.40;99.90
10660;DHT22;5378;53.206;13.316;2023-11-19T13:14:49;12.30;99.90
10660;DHT22;5378;53.206;13.316;2023-11-19T13:17:38;12.20;99.90
10660;DHT22;5378;53.206;13.316;2023-11-19T13:20:25;12.20;99.90
10660;DHT22;5378;53.206;13.316;2023-11-19T13:23:13;12.20;99.90
10660;DHT22;5378;53.206;13.316;2023-11-19T13:26:02;12.20;99.90
10660;DHT22;5378;53.206;13.316;2023-11-19T13:28:50;12.20;99.90
10660;DHT22;5378;53.206;13.316;2023-11-19T13:31:37;12.20;99.90
10660;DHT22;5378;53.206;13.316;2023-11-19T13:34:24;12.20;99.90
10660;DHT22;5378;53.206;13.316;2023-11-19T13:37:11;12.20;99.90
10660;DHT22;5378;53.206;13.316;2023-11-19T13:39:59;12.20;99.90
10660;DHT22;5378;53.206;13.316;2023-11-19T13:42:47;12.10;99.90
10660;DHT22;5378;53.206;13.316;2023-11-19T13:45:34;12.10;99.90
10660;DHT22;5378;53.206;13.316;2023-11-19T13:48:22;12.10;99.90
10660;DHT22;5378;53.206;13.316;2023-11-19T13:51:09;12.00;99.90
10660;DHT22;5378;53.206;13.316;2023-11-19T13:53:57;11.90;99.90
10660;DHT22;5378;53.206;13.316;2023-11-19T13:56:44;12.00;99.90
10660;DHT22;5378;53.206;13.316;2023-11-19T13:59:37;12.00;99.90
10660;DHT22;5378;53.206;13.316;2023-11-19T14:02:26;12.00;99.90
10660;DHT22;5378;53.206;13.316;2023-11-19T14:05:14;12.00;99.90
10660;DHT22;5378;53.206;13.316;2023-11-19T14:08:01;12.00;99.90
10660;DHT22;5378;53.206;13.316;2023-11-19T14:10:50;12.00;99.90
10660;DHT22;5378;53.206;13.316;2023-11-19T14:13:37;12.00;99.90
10660;DHT22;5378;53.206;13.316;2023-11-19T14:16:27;12.00;99.90
10660;DHT22;5378;53.206;13.316;2023-11-19T14:19:14;12.00;99.90
10660;DHT22;5378;53.206;13.316;2023-11-19T14:22:02;12.00;99.90
10660;DHT22;5378;53.206;13.316;2023-11-19T14:24:49;12.00;99.90
10660;DHT22;5378;53.206;13.316;2023-11-19T14:27:36;12.00;99.90
10660;DHT22;5378;53.206;13.316;2023-11-19T14:30:24;11.70;99.90
10660;DHT22;5378;53.206;13.316;2023-11-19T14:33:13;11.50;99.90
10660;DHT22;5378;53.206;13.316;2023-11-19T14:36:00;11.40;99.90
10660;DHT22;5378;53.206;13.316;2023-11-19T14:38:47;11.30;99.90
10660;DHT22;5378;53.206;13.316;2023-11-19T14:41:34;11.40;99.90
10660;DHT22;5378;53.206;13.316;2023-11-19T14:44:21;11.40;99.90
10660;DHT22;5378;53.206;13.316;2023-11-19T14:47:09;11.50;99.90
10660;DHT22;5378;53.206;13.316;2023-11-19T14:49:57;11.50;99.90
10660;DHT22;5378;53.206;13.316;2023-11-19T14:52:44;11.50;99.90
10660;DHT22;5378;53.206;13.316;2023-11-19T14:55:32;11.60;99.90
10660;DHT22;5378;53.206;13.316;2023-11-19T14:58:19;11.50;99.90
10660;DHT22;5378;53.206;13.316;2023-11-19T15:01:06;11.50;99.90
10660;DHT22;5378;53.206;13.316;2023-11-19T15:03:53;11.40;99.90
10660;DHT22;5378;53.206;13.316;2023-11-19T15:06:42;11.50;99.90
10660;DHT22;5378;53.206;13.316;2023-11-19T15:09:29;11.50;99.90
10660;DHT22;5378;53.206;13.316;2023-11-19T15:12:18;11.50;99.90
10660;DHT22;5378;53.206;13.316;2023-11-19T15:15:09;11.40;99.90
10660;DHT22;5378;53.206;13.316;2023-11-19T15:17:58;11.40;99.90
10660;DHT22;5378;53.206;13.316;2023-11-19T15:20:46;11.30;99.90
10660;DHT22;5378;53.206;13.316;2023-11-19T15:23:34;11.30;99.90
10660;DHT22;5378;53.206;13.316;2023-11-19T15:26:22;11.30;99.90
10660;DHT22;5378;53.206;13.316;2023-11-19T15:29:10;11.30;99.90
10660;DHT22;5378;53.206;13.316;2023-11-19T15:31:57;11.20;99.90
10660;DHT22;5378;53.206;13.316;2023-11-19T15:34:45;11.30;99.90
10660;DHT22;5378;53.206;13.316;2023-11-19T15:37:32;11.20;99.90
10660;DHT22;5378;53.206;13.316;2023-11-19T15:40:20;11.20;99.90
10660;DHT22;5378;53.206;13.316;2023-11-19T15:43:08;11.30;99.90
10660;DHT22;5378;53.206;13.316;2023-11-19T15:45:55;11.20;99.90
10660;DHT22;5378;53.206;13.316;2023-11-19T15:48:43;11.30;99.90
10660;DHT22;5378;53.206;13.316;2023-11-19T15:51:30;11.30;99.90
10660;DHT22;5378;53.206;13.316;2023-11-19T15:54:17;11.30;99.90
10660;DHT22;5378;53.206;13.316;2023-11-19T15:57:06;11.30;99.90
10660;DHT22;5378;53.206;13.316;2023-11-19T15:59:53;11.30;99.90
10660;DHT22;5378;53.206;13.316;2023-11-19T16:02:40;11.30;99.90
10660;DHT22;5378;53.206;13.316;2023-11-19T16:05:27;11.30;99.90
10660;DHT22;5378;53.206;13.316;2023-11-19T16:08:15;11.30;99.90
10660;DHT22;5378;53.206;13.316;2023-11-19T16:11:02;11.30;99.90
10660;DHT22;5378;53.206;13.316;2023-11-19T16:13:51;11.20;99.90
10660;DHT22;5378;53.206;13.316;2023-11-19T16:16:38;11.20;99.90
10660;DHT22;5378;53.206;13.316;2023-11-19T16:19:25;11.20;99.90
10660;DHT22;5378;53.206;13.316;2023-11-19T16:22:14;11.20;99.90
10660;DHT22;5378;53.206;13.316;2023-11-19T16:25:01;11.30;99.90
10660;DHT22;5378;53.206;13.316;2023-11-19T16:27:48;11.20;99.90
10660;DHT22;5378;53.206;13.316;2023-11-19T16:30:38;11.20;99.90
10660;DHT22;5378;53.206;13.316;2023-11-19T16:33:25;11.20;99.90
10660;DHT22;5378;53.206;13.316;2023-11-19T16:36:14;11.20;99.90
10660;DHT22;5378;53.206;13.316;2023-11-19T16:39:01;11.10;99.90
10660;DHT22;5378;53.206;13.316;2023-11-19T16:41:51;11.10;99.90
10660;DHT22;5378;53.206;13.316;2023-11-19T16:44:39;11.10;99.90
10660;DHT22;5378;53.206;13.316;2023-11-19T16:47:28;11.10;99.90
10660;DHT22;5378;53.206;13.316;2023-11-19T16:50:15;11.10;99.90
10660;DHT22;5378;53.206;13.316;2023-11-19T16:53:03;11.10;99.90
10660;DHT22;5378;53.206;13.316;2023-11-19T16:55:50;11.10;99.90
10660;DHT22;5378;53.206;13.316;2023-11-19T16:58:37;11.10;99.90
10660;DHT22;5378;53.206;13.316;2023-11-19T17:01:25;11.20;99.90
10660;DHT22;5378;53.206;13.316;2023-11-19T17:04:13;11.20;99.90
10660;DHT22;5378;53.206;13.316;2023-11-19T17:07:03;11.20;99.90
10660;DHT22;5378;53.206;13.316;2023-11-19T17:09:50;11.20;99.90
10660;DHT22;5378;53.206;13.316;2023-11-19T17:12:37;11.20;99.90
10660;DHT22;5378;53.206;13.316;2023-11-19T17:15:24;11.20;99.90
10660;DHT22;5378;53.206;13.316;2023-11-19T17:18:11;11.20;99.90
10660;DHT22;5378;53.206;13.316;2023-11-19T17:20:59;11.10;99.90
10660;DHT22;5378;53.206;13.316;2023-11-19T17:23:47;11.10;99.90
10660;DHT22;5378;53.206;13.316;2023-11-19T17:26:34;11.20;99.90
10660;DHT22;5378;53.206;13.316;2023-11-19T17:29:24;11.10;99.90
10660;DHT22;5378;53.206;13.316;2023-11-19T17:32:12;11.10;99.90
10660;DHT22;5378;53.206;13.316;2023-11-19T17:34:59;10.90;99.90
10660;DHT22;5378;53.206;13.316;2023-11-19T17:37:48;10.90;99.90
10660;DHT22;5378;53.206;13.316;2023-11-19T17:40:35;11.00;99.90
10660;DHT22;5378;53.206;13.316;2023-11-19T17:43:23;11.00;99.90
10660;DHT22;5378;53.206;13.316;2023-11-19T17:46:11;11.00;99.90
10660;DHT22;5378;53.206;13.316;2023-11-19T17:48:59;11.10;99.90
10660;DHT22;5378;53.206;13.316;2023-11-19T17:51:47;11.10;99.90
10660;DHT22;5378;53.206;13.316;2023-11-19T17:54:36;11.10;99.90
10660;DHT22;5378;53.206;13.316;2023-11-19T17:57:24;11.00;99.90